Time;durP1;ratioP1;P1;durP2;ratioP2;P2;SDS_P1;SDS_P2;PMS_P1;PMS_P2;Temp;Humidity;BMP_temperature;BMP_pressure;BME280_temperature;BME280_humidity;BME280_pressure;Samples;Min_cycle;Max_cycle;Signal;HPM_P1;HPM_P2
2023/05/07 00:00:15;;;;;;;10.70;7.40;;;;;;;14.68;100.00;101478.94;5033248;28;20451;-53
2023/05/07 00:02:48;;;;;;;10.77;7.40;;;;;;;14.66;100.00;101478.22;5029994;28;20412;-51
2023/05/07 00:05:17;;;;;;;10.43;7.95;;;;;;;14.60;100.00;101484.78;5030326;28;20095;-52
2023/05/07 00:07:45;;;;;;;10.55;7.70;;;;;;;14.66;100.00;101487.00;5030975;28;20669;-52
2023/05/07 00:10:13;;;;;;;10.57;7.95;;;;;;;14.62;100.00;101487.31;5031162;28;20378;-53
2023/05/07 00:12:42;;;;;;;11.00;7.65;;;;;;;14.61;100.00;101480.31;5030881;28;20076;-52
2023/05/07 00:15:10;;;;;;;11.85;8.50;;;;;;;14.61;100.00;101480.31;5030428;28;20042;-51
2023/05/07 00:17:39;;;;;;;10.15;7.90;;;;;;;14.59;100.00;101488.38;5030619;28;20053;-52
2023/05/07 00:20:09;;;;;;;10.98;8.00;;;;;;;14.53;100.00;101488.78;5030332;28;20053;-53
2023/05/07 00:22:38;;;;;;;11.85;8.43;;;;;;;14.59;100.00;101492.78;5030374;28;20053;-53
2023/05/07 00:25:10;;;;;;;11.18;8.27;;;;;;;14.50;100.00;101489.84;5032574;28;20504;-54
2023/05/07 00:27:38;;;;;;;11.32;8.50;;;;;;;14.48;100.00;101480.34;5032143;28;20068;-51
2023/05/07 00:30:07;;;;;;;12.48;8.80;;;;;;;14.43;100.00;101479.84;5030096;28;20127;-53
2023/05/07 00:32:36;;;;;;;13.02;8.60;;;;;;;14.43;100.00;101477.19;5030859;28;20080;-53
2023/05/07 00:35:09;;;;;;;10.93;8.70;;;;;;;14.42;100.00;101470.22;5028441;28;20057;-54
2023/05/07 00:37:38;;;;;;;12.85;9.30;;;;;;;14.41;100.00;101477.31;5030145;28;20038;-54
2023/05/07 00:40:08;;;;;;;14.30;8.85;;;;;;;14.38;100.00;101466.91;5031749;28;20057;-54
2023/05/07 00:42:37;;;;;;;13.15;8.25;;;;;;;14.33;100.00;101464.63;5030969;28;20119;-53
2023/05/07 00:45:06;;;;;;;12.10;8.77;;;;;;;14.38;100.00;101466.91;5030091;28;20459;-53
2023/05/07 00:47:34;;;;;;;13.10;9.68;;;;;;;14.41;100.00;101463.22;5030754;28;20045;-50
2023/05/07 00:50:03;;;;;;;11.75;8.63;;;;;;;14.36;100.00;101466.19;5029408;28;20104;-53
2023/05/07 00:52:33;;;;;;;11.52;9.20;;;;;;;14.38;100.00;101461.63;5029827;28;20497;-53
2023/05/07 00:55:05;;;;;;;12.55;9.57;;;;;;;14.33;100.00;101461.13;5030102;28;20053;-52
2023/05/07 00:57:37;;;;;;;12.70;9.55;;;;;;;14.31;100.00;101463.03;5029815;28;20540;-54
2023/05/07 01:00:06;;;;;;;12.18;9.35;;;;;;;14.24;100.00;101456.50;5029901;28;20053;-52
2023/05/07 01:02:36;;;;;;;13.88;10.10;;;;;;;14.22;100.00;101461.91;5034085;28;20488;-53
2023/05/07 01:05:10;;;;;;;12.05;9.32;;;;;;;14.24;100.00;101454.69;5030485;28;20103;-53
2023/05/07 01:07:44;;;;;;;12.85;9.65;;;;;;;14.22;100.00;101453.97;5029758;28;20048;-56
2023/05/07 01:10:13;;;;;;;13.70;9.57;;;;;;;14.28;100.00;101461.44;5033163;28;20056;-52
2023/05/07 01:12:42;;;;;;;12.65;10.18;;;;;;;14.17;100.00;101458.72;5029052;28;20053;-53
2023/05/07 01:15:14;;;;;;;14.60;10.32;;;;;;;14.11;100.00;101456.50;5029768;28;20077;-52
2023/05/07 01:17:43;;;;;;;14.02;10.50;;;;;;;14.09;100.00;101446.03;5029767;28;20057;-53
2023/05/07 01:20:13;;;;;;;15.43;10.95;;;;;;;14.03;100.00;101446.47;5028749;28;20455;-53
2023/05/07 01:22:44;;;;;;;13.82;10.95;;;;;;;14.02;100.00;101440.31;5028324;28;20547;-53
2023/05/07 01:25:13;;;;;;;14.02;11.65;;;;;;;14.03;100.00;101444.66;5029983;28;20666;-54
2023/05/07 01:27:41;;;;;;;15.02;11.55;;;;;;;14.00;100.00;101449.31;5028628;28;20075;-52
2023/05/07 01:30:10;;;;;;;17.40;12.18;;;;;;;13.96;100.00;101442.56;5032053;28;20183;-52
2023/05/07 01:32:48;;;;;;;13.75;11.77;;;;;;;13.94;100.00;101442.66;5030780;28;20103;-52
2023/05/07 01:35:20;;;;;;;15.63;13.02;;;;;;;13.93;100.00;101440.97;5028855;28;20160;-52
2023/05/07 01:37:53;;;;;;;15.30;12.13;;;;;;;13.92;100.00;101435.78;5029385;28;20050;-51
2023/05/07 01:40:22;;;;;;;15.05;12.52;;;;;;;13.95;100.00;101439.06;5029389;28;20057;-52
2023/05/07 01:42:50;;;;;;;16.63;12.45;;;;;;;13.92;100.00;101436.66;5028358;28;20053;-56
2023/05/07 01:45:18;;;;;;;17.02;13.52;;;;;;;13.94;100.00;101436.53;5031036;28;20041;-53
2023/05/07 01:47:47;;;;;;;16.60;13.57;;;;;;;13.90;100.00;101441.19;5029292;28;21227;-51
2023/05/07 01:50:20;;;;;;;16.10;13.73;;;;;;;13.89;100.00;101434.19;5029606;28;20128;-52
2023/05/07 01:52:50;;;;;;;15.55;13.40;;;;;;;13.87;100.00;101436.13;5033167;28;20045;-53
2023/05/07 01:55:20;;;;;;;16.15;14.18;;;;;;;13.88;100.00;101437.81;5030177;28;20049;-53
2023/05/07 01:57:48;;;;;;;19.88;14.63;;;;;;;13.88;100.00;101432.53;5028154;28;20056;-52
2023/05/07 02:00:17;;;;;;;15.82;13.80;;;;;;;13.88;100.00;101442.25;5032102;28;20053;-53
2023/05/07 02:02:45;;;;;;;16.67;14.32;;;;;;;13.85;100.00;101444.16;5029015;28;20107;-52
2023/05/07 02:05:13;;;;;;;16.45;14.40;;;;;;;13.85;100.00;101443.28;5028209;28;20073;-53
2023/05/07 02:07:41;;;;;;;17.50;14.00;;;;;;;13.88;100.00;101442.25;5031152;28;20070;-52
2023/05/07 02:10:10;;;;;;;17.85;14.35;;;;;;;13.89;100.00;101452.72;5032644;28;20115;-51
2023/05/07 02:12:40;;;;;;;16.30;13.85;;;;;;;13.87;100.00;101446.69;5028326;28;20163;-51
2023/05/07 02:15:09;;;;;;;17.48;14.10;;;;;;;13.86;100.00;101445.00;5027110;28;20058;-52
2023/05/07 02:17:58;;;;;;;17.73;14.05;;;;;;;13.82;100.00;101446.16;5028812;28;20053;-54
2023/05/07 02:20:29;;;;;;;17.58;14.07;;;;;;;13.82;100.00;101433.78;5027592;28;20068;-52
2023/05/07 02:22:57;;;;;;;16.15;14.50;;;;;;;13.85;100.00;101444.16;5028944;28;20057;-50
2023/05/07 02:25:25;;;;;;;16.38;14.38;;;;;;;13.85;100.00;101444.16;5032496;28;20069;-52
2023/05/07 02:27:54;;;;;;;17.73;14.73;;;;;;;13.82;100.00;101446.16;5030945;28;20124;-52
2023/05/07 02:30:23;;;;;;;17.17;14.50;;;;;;;13.83;100.00;101446.06;5027171;28;20061;-50
2023/05/07 02:32:51;;;;;;;16.20;14.25;;;;;;;13.80;100.00;101440.97;5029155;28;20504;-52
2023/05/07 02:35:19;;;;;;;19.88;15.85;;;;;;;13.80;100.00;101437.50;5031782;28;20041;-59
2023/05/07 02:37:48;;;;;;;18.38;14.65;;;;;;;13.79;100.00;101427.88;5032475;28;20045;-59
2023/05/07 02:40:19;;;;;;;17.92;14.65;;;;;;;13.81;100.00;101425.97;5028942;28;20524;-52
2023/05/07 02:42:50;;;;;;;15.23;13.55;;;;;;;13.82;100.00;101433.78;5026973;28;20052;-51
2023/05/07 02:45:19;;;;;;;16.48;14.30;;;;;;;13.79;100.00;101435.81;5027972;28;20057;-50
2023/05/07 02:47:47;;;;;;;17.05;15.13;;;;;;;13.75;100.00;101432.53;5026514;28;20052;-52
2023/05/07 02:50:16;;;;;;;16.60;14.63;;;;;;;13.79;100.00;101441.09;5031540;28;20053;-53
2023/05/07 02:52:44;;;;;;;16.65;14.20;;;;;;;13.71;100.00;101440.78;5028252;28;20053;-53
2023/05/07 02:55:12;;;;;;;17.70;14.20;;;;;;;13.72;100.00;101447.78;5028491;28;20049;-53
2023/05/07 02:57:40;;;;;;;18.60;14.43;;;;;;;13.73;100.00;101452.06;5027442;28;20049;-53
2023/05/07 03:00:13;;;;;;;17.98;13.65;;;;;;;13.66;100.00;101449.88;5028306;28;20057;-53
2023/05/07 03:02:42;;;;;;;17.60;14.18;;;;;;;13.66;100.00;101443.72;5028696;28;20060;-50
2023/05/07 03:05:10;;;;;;;15.68;13.38;;;;;;;13.66;100.00;101444.59;5025934;28;20464;-51
2023/05/07 03:07:39;;;;;;;18.92;13.95;;;;;;;13.62;100.00;101448.41;5028354;28;20128;-50
2023/05/07 03:10:07;;;;;;;17.35;14.20;;;;;;;13.61;100.00;101451.16;5028680;28;20099;-53
2023/05/07 03:12:36;;;;;;;15.48;13.55;;;;;;;13.62;100.00;101450.16;5027587;28;20045;-52
2023/05/07 03:15:04;;;;;;;16.10;13.07;;;;;;;13.64;100.00;101446.47;5031500;28;20508;-53
2023/05/07 03:17:32;;;;;;;17.05;14.25;;;;;;;13.62;100.00;101447.53;5028235;28;20057;-53
2023/05/07 03:20:02;;;;;;;16.88;13.43;;;;;;;13.63;100.00;101450.09;5028773;28;20144;-53
2023/05/07 03:22:30;;;;;;;16.75;13.30;;;;;;;13.61;100.00;101444.06;5030594;28;20053;-53
2023/05/07 03:24:58;;;;;;;18.88;14.52;;;;;;;13.62;100.00;101439.59;5030503;28;20053;-54
2023/05/07 03:27:29;;;;;;;16.27;13.73;;;;;;;13.62;100.00;101445.75;5031186;28;20099;-51
2023/05/07 03:29:57;;;;;;;17.08;14.57;;;;;;;13.57;100.00;101437.28;5028153;28;20551;-53
2023/05/07 03:32:26;;;;;;;18.92;13.70;;;;;;;13.53;100.00;101431.34;5028507;28;20370;-52
2023/05/07 03:34:54;;;;;;;17.42;13.88;;;;;;;13.58;100.00;101440.75;5026854;28;20053;-52
2023/05/07 03:37:26;;;;;;;16.90;14.80;;;;;;;13.57;100.00;101439.94;5028054;28;20045;-53
2023/05/07 03:39:54;;;;;;;19.27;14.27;;;;;;;13.55;100.00;101443.63;5028038;28;20057;-52
2023/05/07 03:42:22;;;;;;;18.55;14.93;;;;;;;13.53;100.00;101446.38;5031737;28;20046;-49
2023/05/07 03:44:50;;;;;;;16.45;13.73;;;;;;;13.52;100.00;101437.59;5031614;28;20488;-52
2023/05/07 03:47:18;;;;;;;19.40;15.23;;;;;;;13.45;100.00;101438.13;5029565;28;20045;-52
2023/05/07 03:49:47;;;;;;;17.70;15.02;;;;;;;13.41;100.00;101439.28;5026613;28;20077;-51
2023/05/07 03:52:16;;;;;;;18.02;14.70;;;;;;;13.42;100.00;101436.53;5027577;28;20045;-52
2023/05/07 03:54:45;;;;;;;17.85;14.07;;;;;;;13.49;100.00;101442.25;5027716;28;20061;-49
2023/05/07 03:57:13;;;;;;;18.40;15.38;;;;;;;13.42;100.00;101446.25;5027479;28;20115;-51
2023/05/07 03:59:41;;;;;;;17.10;14.07;;;;;;;13.42;100.00;101447.09;5029784;28;20049;-52
2023/05/07 04:02:09;;;;;;;17.95;14.40;;;;;;;13.40;100.00;101450.78;5032992;28;20053;-55
2023/05/07 04:04:40;;;;;;;18.13;14.85;;;;;;;13.37;100.00;101451.84;5030607;28;20111;-51
2023/05/07 04:07:09;;;;;;;17.30;13.50;;;;;;;13.34;100.00;101454.66;5034357;28;20077;-52
2023/05/07 04:09:37;;;;;;;19.52;15.23;;;;;;;13.33;100.00;101461.75;5031146;28;20049;-52
2023/05/07 04:12:07;;;;;;;19.38;14.82;;;;;;;13.38;100.00;101460.63;5031321;28;20447;-51
2023/05/07 04:14:35;;;;;;;20.17;15.85;;;;;;;13.40;100.00;101453.44;5030544;28;20081;-53
2023/05/07 04:17:07;;;;;;;19.13;14.95;;;;;;;13.41;100.00;101449.84;5030964;28;20099;-60
2023/05/07 04:19:35;;;;;;;19.27;15.75;;;;;;;13.38;100.00;101458.00;5030097;28;20777;-60
2023/05/07 04:22:06;;;;;;;17.67;14.73;;;;;;;13.37;100.00;101459.75;5031087;28;20057;-60
2023/05/07 04:24:36;;;;;;;21.63;16.00;;;;;;;13.42;100.00;101465.59;5031128;28;20049;-59
2023/05/07 04:27:06;;;;;;;19.70;16.75;;;;;;;13.38;100.00;101465.91;5031508;28;20103;-60
2023/05/07 04:29:35;;;;;;;18.92;15.70;;;;;;;13.32;100.00;101461.84;5030921;28;20037;-60
2023/05/07 04:32:03;;;;;;;20.38;16.67;;;;;;;13.37;100.00;101465.06;5033871;28;20049;-59
2023/05/07 04:34:32;;;;;;;19.23;16.42;;;;;;;13.37;100.00;101462.41;5030231;28;20068;-59
2023/05/07 04:37:00;;;;;;;19.38;17.25;;;;;;;13.34;100.00;101467.88;5032369;28;20080;-60
2023/05/07 04:39:28;;;;;;;22.55;17.55;;;;;;;13.31;100.00;101463.63;5034629;28;20080;-59
2023/05/07 04:41:56;;;;;;;24.17;17.85;;;;;;;13.37;100.00;101470.34;5034647;28;20107;-59
2023/05/07 04:44:24;;;;;;;20.75;17.83;;;;;;;13.31;100.00;101471.56;5031263;28;20061;-59
2023/05/07 04:46:54;;;;;;;19.85;17.73;;;;;;;13.32;100.00;101467.97;5029912;28;20046;-59
2023/05/07 04:49:22;;;;;;;21.20;17.08;;;;;;;13.34;100.00;101468.72;5032181;28;20053;-52
2023/05/07 04:51:50;;;;;;;20.77;16.85;;;;;;;13.39;100.00;101467.59;5030380;28;20049;-50
2023/05/07 04:54:21;;;;;;;22.20;17.35;;;;;;;13.37;100.00;101469.50;5030145;28;20042;-53
2023/05/07 04:56:49;;;;;;;19.52;17.20;;;;;;;13.33;100.00;101469.69;5029234;28;20736;-53
2023/05/07 04:59:18;;;;;;;22.48;18.08;;;;;;;13.44;100.00;101476.06;5029301;28;20060;-51
2023/05/07 05:01:48;;;;;;;20.33;17.77;;;;;;;13.39;100.00;101478.16;5029918;28;20046;-52
2023/05/07 05:04:18;;;;;;;19.58;17.48;;;;;;;13.38;100.00;101477.31;5030153;28;20397;-60
2023/05/07 05:06:46;;;;;;;19.83;17.15;;;;;;;13.36;100.00;101479.19;5030145;28;20049;-53
2023/05/07 05:09:17;;;;;;;20.20;17.88;;;;;;;13.39;100.00;101481.66;5033359;28;20096;-59
2023/05/07 05:11:45;;;;;;;20.80;17.92;;;;;;;13.37;100.00;101480.06;5033366;28;20527;-60
2023/05/07 05:14:14;;;;;;;21.27;18.08;;;;;;;13.41;100.00;101486.84;5030673;28;20124;-59
2023/05/07 05:16:42;;;;;;;19.73;17.63;;;;;;;13.44;100.00;101490.13;5031601;28;20176;-59
2023/05/07 05:19:10;;;;;;;20.08;17.50;;;;;;;13.49;100.00;101495.09;5030991;28;20144;-59
2023/05/07 05:21:39;;;;;;;19.08;16.60;;;;;;;13.51;100.00;101488.75;5030272;28;20104;-59
2023/05/07 05:24:08;;;;;;;19.98;17.88;;;;;;;13.56;100.00;101491.09;5033304;28;20080;-59
2023/05/07 05:26:36;;;;;;;21.65;17.52;;;;;;;13.57;100.00;101487.50;5033729;28;20060;-60
2023/05/07 05:29:04;;;;;;;21.65;18.02;;;;;;;13.57;100.00;101495.41;5034065;28;20140;-53
2023/05/07 05:31:33;;;;;;;23.85;18.08;;;;;;;13.57;100.00;101491.94;5033607;28;20049;-60
2023/05/07 05:34:01;;;;;;;21.88;17.52;;;;;;;13.61;100.00;101488.97;5030471;28;20128;-59
2023/05/07 05:36:32;;;;;;;20.08;17.52;;;;;;;13.57;100.00;101492.78;5028855;28;20089;-59
2023/05/07 05:39:01;;;;;;;20.63;18.42;;;;;;;13.59;100.00;101496.16;5029850;28;20400;-59
2023/05/07 05:41:30;;;;;;;20.60;18.40;;;;;;;13.55;100.00;101499.13;5031840;28;20136;-60
2023/05/07 05:43:58;;;;;;;21.63;18.55;;;;;;;13.56;100.00;101499.00;5029380;28;20049;-60
2023/05/07 05:46:26;;;;;;;23.85;19.60;;;;;;;13.56;100.00;101508.75;5029215;28;20112;-60
2023/05/07 05:48:54;;;;;;;20.83;18.48;;;;;;;13.64;100.00;101504.63;5032304;28;20045;-59
2023/05/07 05:51:23;;;;;;;20.77;18.58;;;;;;;13.66;100.00;101513.31;5029294;28;20061;-59
2023/05/07 05:53:51;;;;;;;21.02;18.73;;;;;;;13.71;100.00;101510.34;5029124;28;20046;-60
2023/05/07 05:56:21;;;;;;;21.70;18.02;;;;;;;13.72;100.00;101512.03;5029632;28;20133;-60
2023/05/07 05:58:49;;;;;;;20.85;18.15;;;;;;;13.72;100.00;101519.13;5029613;28;20061;-60
2023/05/07 06:01:18;;;;;;;22.30;17.40;;;;;;;13.77;100.00;101515.22;5029194;28;20473;-60
2023/05/07 06:03:46;;;;;;;20.92;17.38;;;;;;;13.80;100.00;101519.47;5029245;28;20440;-60
2023/05/07 06:06:15;;;;;;;19.65;16.52;;;;;;;13.85;100.00;101515.53;5028469;28;20057;-60
2023/05/07 06:08:43;;;;;;;19.33;16.98;;;;;;;13.82;100.00;101522.81;5028567;28;20516;-60
2023/05/07 06:11:11;;;;;;;19.30;16.25;;;;;;;13.89;100.00;101524.09;5027854;28;20046;-60
2023/05/07 06:13:40;;;;;;;20.02;16.63;;;;;;;13.87;100.00;101520.72;5029834;28;20087;-60
2023/05/07 06:16:11;;;;;;;18.92;16.60;;;;;;;13.83;100.00;101525.38;5029061;28;20153;-60
2023/05/07 06:18:40;;;;;;;19.77;16.77;;;;;;;13.82;100.00;101525.47;5028692;28;20069;-60
2023/05/07 06:21:08;;;;;;;19.30;15.75;;;;;;;13.90;100.00;101520.50;5026376;28;20100;-60
2023/05/07 06:23:36;;;;;;;20.85;16.83;;;;;;;13.94;100.00;101519.34;5027738;28;20145;-60
2023/05/07 06:26:04;;;;;;;17.73;15.35;;;;;;;13.95;100.00;101518.41;5028229;28;20084;-60
2023/05/07 06:28:35;;;;;;;18.50;15.88;;;;;;;13.99;100.00;101524.34;5031990;28;20054;-60
2023/05/07 06:31:16;;;;;;;20.30;16.42;;;;;;;14.03;100.00;101523.16;5032806;28;20381;-60
2023/05/07 06:33:45;;;;;;;19.88;16.13;;;;;;;14.07;100.00;101531.72;5032873;28;20053;-60
2023/05/07 06:36:13;;;;;;;19.40;17.15;;;;;;;14.05;100.00;101533.63;5030539;28;20064;-60
2023/05/07 06:38:42;;;;;;;19.58;16.67;;;;;;;14.10;100.00;101532.38;5028667;28;20107;-60
2023/05/07 06:41:10;;;;;;;24.67;18.50;;;;;;;14.08;100.00;101531.59;5031885;28;20119;-60
2023/05/07 06:43:38;;;;;;;21.58;18.55;;;;;;;14.08;100.00;101533.41;5027699;28;20043;-60
2023/05/07 06:46:06;;;;;;;20.20;18.00;;;;;;;14.14;100.00;101533.84;5028978;28;20045;-60
2023/05/07 06:48:35;;;;;;;20.48;18.27;;;;;;;14.14;100.00;101538.28;5032309;28;20045;-60
2023/05/07 06:51:04;;;;;;;22.30;19.67;;;;;;;14.19;100.00;101537.03;5032407;28;20362;-60
2023/05/07 06:53:36;;;;;;;23.20;19.10;;;;;;;14.29;100.00;101534.56;5032659;28;20414;-60
2023/05/07 06:56:04;;;;;;;24.42;20.08;;;;;;;14.22;100.00;101541.25;5031035;28;20049;-60
2023/05/07 06:58:33;;;;;;;22.20;19.90;;;;;;;14.32;100.00;101536.16;5027358;28;20053;-60
2023/05/07 07:01:01;;;;;;;22.17;19.77;;;;;;;14.44;100.00;101545.88;5027792;28;20128;-60
2023/05/07 07:03:29;;;;;;;23.52;20.67;;;;;;;14.35;100.00;101542.06;5028528;28;20132;-60
2023/05/07 07:05:59;;;;;;;23.17;20.73;;;;;;;14.43;100.00;101538.06;5026327;28;20607;-60
2023/05/07 07:08:29;;;;;;;22.17;19.73;;;;;;;14.42;100.00;101533.72;5027679;28;20049;-61
2023/05/07 07:10:57;;;;;;;23.02;20.13;;;;;;;14.51;100.00;101535.72;5028160;28;21340;-55
2023/05/07 07:13:25;;;;;;;23.55;20.98;;;;;;;14.58;100.00;101534.31;5028383;28;20061;-52
2023/05/07 07:15:54;;;;;;;23.70;20.75;;;;;;;14.65;100.00;101540.88;5027681;28;20073;-55
2023/05/07 07:18:22;;;;;;;21.15;18.83;;;;;;;14.67;100.00;101544.28;5028340;28;20131;-54
2023/05/07 07:20:50;;;;;;;23.33;20.17;;;;;;;14.70;100.00;101554.66;5026954;28;20049;-53
2023/05/07 07:23:22;;;;;;;22.00;19.60;;;;;;;14.72;100.00;101559.00;5027822;28;20516;-53
2023/05/07 07:25:50;;;;;;;21.70;18.10;;;;;;;14.77;100.00;101556.88;5027152;28;20054;-53
2023/05/07 07:28:18;;;;;;;22.58;18.45;;;;;;;14.82;100.00;101560.88;5027942;28;20508;-53
2023/05/07 07:30:46;;;;;;;21.58;18.67;;;;;;;14.76;100.00;101555.16;5027796;28;20042;-53
2023/05/07 07:33:15;;;;;;;23.10;18.92;;;;;;;14.85;100.00;101557.16;5028657;28;20385;-53
2023/05/07 07:35:43;;;;;;;25.23;19.60;;;;;;;14.80;100.00;101554.00;5031574;28;20065;-61
2023/05/07 07:38:13;;;;;;;23.27;18.83;;;;;;;14.90;100.00;101557.66;5035918;28;20132;-60
2023/05/07 07:40:43;;;;;;;25.27;19.02;;;;;;;14.92;100.00;101558.41;5035407;28;20046;-60
2023/05/07 07:43:11;;;;;;;22.60;19.45;;;;;;;14.98;100.00;101552.69;5031993;28;20053;-61
2023/05/07 07:45:40;;;;;;;22.15;18.40;;;;;;;15.09;100.00;101558.97;5031246;28;20111;-61
2023/05/07 07:48:08;;;;;;;23.52;18.67;;;;;;;15.04;100.00;101560.16;5035421;28;20115;-61
2023/05/07 07:50:36;;;;;;;21.52;17.75;;;;;;;15.03;100.00;101563.75;5034219;28;20045;-61
2023/05/07 07:53:16;;;;;;;20.60;18.05;;;;;;;15.12;100.00;101569.34;5031890;28;20045;-61
2023/05/07 07:55:45;;;;;;;22.77;18.90;;;;;;;15.15;100.00;101563.84;5031402;28;20045;-62
2023/05/07 07:58:16;;;;;;;20.80;18.40;;;;;;;15.21;100.00;101563.38;5031797;28;20069;-61
2023/05/07 08:00:45;;;;;;;21.25;18.33;;;;;;;15.31;100.00;101567.06;5031012;28;20058;-61
2023/05/07 08:03:16;;;;;;;21.95;17.88;;;;;;;15.43;100.00;101562.63;5031795;28;20042;-61
2023/05/07 08:05:44;;;;;;;20.75;17.30;;;;;;;15.46;100.00;101569.50;5030732;28;20447;-61
2023/05/07 08:08:12;;;;;;;21.88;17.30;;;;;;;15.46;100.00;101573.03;5031604;28;20049;-61
2023/05/07 08:10:41;;;;;;;22.33;18.20;;;;;;;15.52;100.00;101571.72;5034036;28;20046;-61
2023/05/07 08:13:10;;;;;;;20.85;17.70;;;;;;;15.59;100.00;101575.59;5034068;28;20107;-61
2023/05/07 08:15:38;;;;;;;23.17;18.08;;;;;;;15.68;100.00;101574.91;5035173;28;20054;-61
2023/05/07 08:18:09;;;;;;;21.30;17.77;;;;;;;15.75;100.00;101571.78;5034938;28;20050;-55
2023/05/07 08:20:39;;;;;;;21.38;16.20;;;;;;;15.81;100.00;101574.00;5031555;28;20037;-55
2023/05/07 08:23:07;;;;;;;20.95;16.65;;;;;;;15.78;100.00;101569.75;5031124;28;20053;-55
2023/05/07 08:25:37;;;;;;;22.52;17.95;;;;;;;15.84;100.00;101573.75;5034127;28;20073;-55
2023/05/07 08:28:05;;;;;;;21.88;17.48;;;;;;;15.95;100.00;101567.66;5030698;28;20544;-56
2023/05/07 08:30:37;;;;;;;20.85;17.95;;;;;;;15.99;100.00;101567.31;5030457;28;20141;-55
2023/05/07 08:33:06;;;;;;;24.17;17.45;;;;;;;16.03;100.00;101566.09;5029597;28;20107;-55
2023/05/07 08:35:34;;;;;;;21.15;16.60;;;;;;;16.11;100.00;101565.50;5029651;28;20041;-54
2023/05/07 08:38:02;;;;;;;21.17;17.08;;;;;;;16.18;100.00;101573.84;5030417;28;20079;-55
2023/05/07 08:40:37;;;;;;;20.50;16.50;;;;;;;16.20;100.00;101570.09;5033371;28;20049;-56
2023/05/07 08:43:06;;;;;;;21.38;17.70;;;;;;;16.29;100.00;101567.69;5030944;28;20092;-55
2023/05/07 08:45:40;;;;;;;20.65;16.95;;;;;;;16.41;100.00;101574.69;5029726;28;20404;-55
2023/05/07 08:48:14;;;;;;;19.52;17.05;;;;;;;16.49;100.00;101579.41;5032976;28;20049;-56
2023/05/07 08:50:43;;;;;;;19.63;16.42;;;;;;;16.58;100.00;101578.69;5033924;28;20041;-54
2023/05/07 08:53:11;;;;;;;19.42;15.85;;;;;;;16.69;100.00;101576.03;5034154;28;20500;-56
2023/05/07 08:55:39;;;;;;;20.55;16.15;;;;;;;16.81;100.00;101574.19;5031605;28;20072;-55
2023/05/07 08:58:10;;;;;;;19.63;16.48;;;;;;;16.96;100.00;101577.47;5028788;28;20045;-56
2023/05/07 09:00:41;;;;;;;19.58;15.70;;;;;;;16.96;100.00;101576.59;5029734;28;20057;-56
2023/05/07 09:03:12;;;;;;;21.17;16.25;;;;;;;17.03;100.00;101580.47;5030760;28;20049;-62
2023/05/07 09:05:40;;;;;;;21.65;17.20;;;;;;;17.19;100.00;101582.72;5028836;28;20060;-62
2023/05/07 09:08:09;;;;;;;20.67;17.58;;;;;;;17.31;100.00;101586.19;5031398;28;20048;-62
2023/05/07 09:10:37;;;;;;;21.38;17.23;;;;;;;17.47;100.00;101575.97;5033992;28;20103;-62
2023/05/07 09:13:05;;;;;;;19.83;16.55;;;;;;;17.54;100.00;101585.13;5030805;28;20133;-63
2023/05/07 09:15:33;;;;;;;21.65;17.50;;;;;;;17.66;100.00;101583.25;5030062;28;20057;-62
2023/05/07 09:18:02;;;;;;;20.55;16.88;;;;;;;17.88;100.00;101584.13;5029415;28;20085;-62
2023/05/07 09:20:31;;;;;;;20.10;16.13;;;;;;;17.95;100.00;101587.97;5027915;28;20084;-62
2023/05/07 09:22:59;;;;;;;18.65;16.50;;;;;;;18.04;100.00;101586.34;5029814;28;20041;-62
2023/05/07 09:25:31;;;;;;;19.05;16.70;;;;;;;18.19;100.00;101586.88;5029828;28;20060;-62
2023/05/07 09:28:00;;;;;;;19.37;16.50;;;;;;;18.33;100.00;101578.50;5032681;28;20049;-62
2023/05/07 09:30:30;;;;;;;19.85;16.00;;;;;;;18.51;100.00;101577.88;5033568;28;20057;-56
2023/05/07 09:33:00;;;;;;;19.73;15.52;;;;;;;18.58;100.00;101573.72;5031884;28;20488;-56
2023/05/07 09:35:32;;;;;;;;;;;;;;;18.85;100.00;101572.25;5029364;28;20100;-54
2023/05/07 09:38:02;;;;;;;18.55;15.73;;;;;;;18.88;100.00;101575.53;5029730;28;20039;-56
2023/05/07 09:40:34;;;;;;;17.92;15.10;;;;;;;19.01;100.00;101569.94;5029965;28;20060;-56
2023/05/07 09:43:11;;;;;;;18.27;14.43;;;;;;;19.22;100.00;101574.31;5030622;28;20060;-56
2023/05/07 09:45:39;;;;;;;16.75;13.13;;;;;;;19.42;100.00;101576.00;5029417;28;20107;-54
2023/05/07 09:48:08;;;;;;;16.95;14.68;;;;;;;19.49;100.00;101581.63;5029977;28;20069;-56
2023/05/07 09:50:47;;;;;;;17.13;13.45;;;;;;;19.57;100.00;101573.75;5028619;28;20452;-56
2023/05/07 09:53:18;;;;;;;18.20;14.30;;;;;;;19.66;100.00;101577.41;5029477;28;20049;-56
2023/05/07 09:55:47;;;;;;;17.77;14.35;;;;;;;19.85;100.00;101581.03;5029388;28;20071;-56
2023/05/07 09:58:17;;;;;;;15.77;13.98;;;;;;;19.91;100.00;101585.81;5029329;28;20045;-56
2023/05/07 10:00:48;;;;;;;15.77;12.52;;;;;;;19.95;100.00;101579.22;5029241;28;20061;-55
2023/05/07 10:03:16;;;;;;;16.13;12.82;;;;;;;19.92;100.00;101583.00;5029383;28;20864;-56
2023/05/07 10:05:47;;;;;;;15.30;12.52;;;;;;;20.19;100.00;101584.09;5028722;28;20045;-55
2023/05/07 10:08:16;;;;;;;15.48;12.73;;;;;;;20.34;100.00;101586.25;5029416;28;20045;-56
2023/05/07 10:10:45;;;;;;;17.48;13.23;;;;;;;20.38;100.00;101585.84;5029022;28;20064;-56
2023/05/07 10:13:14;;;;;;;15.27;12.90;;;;;;;20.48;100.00;101587.59;5029777;28;20057;-56
2023/05/07 10:15:42;;;;;;;16.85;13.18;;;;;;;20.60;100.00;101586.44;5029126;28;20148;-56
2023/05/07 10:18:13;;;;;;;15.00;12.10;;;;;;;20.73;100.00;101592.31;5028866;28;20091;-57
2023/05/07 10:20:44;;;;;;;15.18;12.02;;;;;;;20.91;100.00;101588.84;5028470;28;20089;-57
2023/05/07 10:23:16;;;;;;;13.70;11.50;;;;;;;21.06;100.00;101587.31;5029486;28;20071;-56
2023/05/07 10:25:44;;;;;;;15.65;12.18;;;;;;;21.21;100.00;101587.66;5031488;28;20096;-56
2023/05/07 10:28:20;;;;;;;15.23;12.15;;;;;;;21.47;100.00;101578.03;5028758;28;20052;-56
2023/05/07 10:31:00;;;;;;;14.48;11.93;;;;;;;21.54;100.00;101576.44;5028631;28;20504;-56
2023/05/07 10:33:32;;;;;;;15.85;11.85;;;;;;;21.79;100.00;101577.50;5029282;28;20053;-57
2023/05/07 10:36:04;;;;;;;13.52;11.70;;;;;;;22.12;100.00;101580.38;5029795;28;20045;-55
2023/05/07 10:38:33;;;;;;;14.85;11.85;;;;;;;22.20;100.00;101582.28;5032577;28;20048;-57
2023/05/07 10:41:04;;;;;;;13.77;10.55;;;;;;;22.29;100.00;101568.75;5031991;28;20504;-57
2023/05/07 10:43:42;;;;;;;12.93;10.85;;;;;;;22.41;100.00;101572.00;5028708;28;20052;-57
2023/05/07 10:46:12;;;;;;;15.65;12.55;;;;;;;22.46;100.00;101576.91;5028814;28;20056;-57
2023/05/07 10:49:07;;;;;;;13.77;10.90;;;;;;;22.60;100.00;101567.41;5028797;28;20041;-57
2023/05/07 10:51:36;;;;;;;13.23;11.02;;;;;;;22.76;100.00;101564.78;5028700;28;20054;-56
2023/05/07 10:54:22;;;;;;;13.57;11.35;;;;;;;23.11;100.00;101570.91;5028794;28;20053;-55
2023/05/07 10:56:50;;;;;;;13.70;10.77;;;;;;;23.48;100.00;101575.97;5026906;28;20057;-55
2023/05/07 10:59:33;;;;;;;12.43;11.13;;;;;;;23.70;100.00;101575.31;5028724;28;20053;-58
2023/05/07 11:02:03;;;;;;;14.48;11.52;;;;;;;23.76;100.00;101574.66;5031797;28;20574;-56
2023/05/07 11:04:34;;;;;;;13.18;10.63;;;;;;;23.92;100.00;101570.28;5027245;28;20052;-57
2023/05/07 11:07:30;;;;;;;14.25;11.55;;;;;;;24.09;100.00;101571.94;5028636;28;20152;-58
2023/05/07 11:10:05;;;;;;;13.80;11.57;;;;;;;24.34;100.00;101563.78;5030023;28;20041;-57
2023/05/07 11:12:53;;;;;;;13.00;11.05;;;;;;;24.27;100.00;101568.19;5032518;28;20049;-58